sensor_id;sensor_type;location;lat;lon;timestamp;P1;durP1;ratioP1;P2;durP2;ratioP2
56331;SDS011;42237;53.340;6.812;2022-10-30T00:00:03;23.15;;;13.50;;
56331;SDS011;42237;53.340;6.812;2022-10-30T00:02:30;27.25;;;14.10;;
56331;SDS011;42237;53.340;6.812;2022-10-30T00:04:55;35.22;;;13.48;;
56331;SDS011;42237;53.340;6.812;2022-10-30T00:07:21;23.73;;;13.68;;
56331;SDS011;42237;53.340;6.812;2022-10-30T00:09:46;31.05;;;15.00;;
56331;SDS011;42237;53.340;6.812;2022-10-30T00:12:12;26.30;;;14.88;;
56331;SDS011;42237;53.340;6.812;2022-10-30T00:14:38;23.63;;;13.05;;
56331;SDS011;42237;53.340;6.812;2022-10-30T00:17:03;25.02;;;14.63;;
56331;SDS011;42237;53.340;6.812;2022-10-30T00:19:29;27.00;;;13.73;;
56331;SDS011;42237;53.340;6.812;2022-10-30T00:21:55;27.25;;;13.98;;
56331;SDS011;42237;53.340;6.812;2022-10-30T00:24:21;26.92;;;14.50;;
56331;SDS011;42237;53.340;6.812;2022-10-30T00:26:47;24.60;;;14.05;;
56331;SDS011;42237;53.340;6.812;2022-10-30T00:29:14;25.98;;;13.40;;
56331;SDS011;42237;53.340;6.812;2022-10-30T00:31:40;27.08;;;14.77;;
56331;SDS011;42237;53.340;6.812;2022-10-30T00:34:06;31.38;;;14.43;;
56331;SDS011;42237;53.340;6.812;2022-10-30T00:36:31;29.40;;;13.75;;
56331;SDS011;42237;53.340;6.812;2022-10-30T00:38:57;32.97;;;14.65;;
56331;SDS011;42237;53.340;6.812;2022-10-30T00:41:23;35.72;;;14.10;;
56331;SDS011;42237;53.340;6.812;2022-10-30T00:43:48;32.17;;;13.57;;
56331;SDS011;42237;53.340;6.812;2022-10-30T00:51:26;24.02;;;13.38;;
56331;SDS011;42237;53.340;6.812;2022-10-30T00:53:55;27.35;;;14.07;;
56331;SDS011;42237;53.340;6.812;2022-10-30T00:56:22;25.63;;;13.77;;
56331;SDS011;42237;53.340;6.812;2022-10-30T00:58:50;26.55;;;12.73;;
56331;SDS011;42237;53.340;6.812;2022-10-30T01:01:21;29.17;;;14.23;;
56331;SDS011;42237;53.340;6.812;2022-10-30T01:03:49;23.73;;;13.55;;
56331;SDS011;42237;53.340;6.812;2022-10-30T01:06:18;27.15;;;13.20;;
56331;SDS011;42237;53.340;6.812;2022-10-30T01:08:44;25.75;;;13.05;;
56331;SDS011;42237;53.340;6.812;2022-10-30T01:11:11;26.38;;;13.90;;
56331;SDS011;42237;53.340;6.812;2022-10-30T01:13:37;25.42;;;13.48;;
56331;SDS011;42237;53.340;6.812;2022-10-30T01:38:22;24.60;;;14.00;;
56331;SDS011;42237;53.340;6.812;2022-10-30T01:40:53;29.95;;;14.40;;
56331;SDS011;42237;53.340;6.812;2022-10-30T01:43:19;29.45;;;13.00;;
56331;SDS011;42237;53.340;6.812;2022-10-30T01:54:37;26.70;;;13.48;;
56331;SDS011;42237;53.340;6.812;2022-10-30T01:57:18;26.73;;;13.70;;
56331;SDS011;42237;53.340;6.812;2022-10-30T02:00:09;26.13;;;13.48;;
56331;SDS011;42237;53.340;6.812;2022-10-30T02:02:37;23.45;;;13.38;;
56331;SDS011;42237;53.340;6.812;2022-10-30T02:05:04;26.23;;;14.13;;
56331;SDS011;42237;53.340;6.812;2022-10-30T02:07:31;25.85;;;14.63;;
56331;SDS011;42237;53.340;6.812;2022-10-30T02:09:57;27.95;;;13.80;;
56331;SDS011;42237;53.340;6.812;2022-10-30T02:12:23;25.30;;;13.18;;
56331;SDS011;42237;53.340;6.812;2022-10-30T02:14:52;28.63;;;14.80;;
56331;SDS011;42237;53.340;6.812;2022-10-30T02:17:20;26.35;;;13.98;;
56331;SDS011;42237;53.340;6.812;2022-10-30T02:19:46;23.90;;;13.55;;
56331;SDS011;42237;53.340;6.812;2022-10-30T02:22:12;29.20;;;14.18;;
56331;SDS011;42237;53.340;6.812;2022-10-30T02:24:37;28.83;;;14.02;;
56331;SDS011;42237;53.340;6.812;2022-10-30T02:27:03;29.00;;;14.30;;
56331;SDS011;42237;53.340;6.812;2022-10-30T02:29:29;23.55;;;13.30;;
56331;SDS011;42237;53.340;6.812;2022-10-30T02:31:55;26.73;;;13.63;;
56331;SDS011;42237;53.340;6.812;2022-10-30T02:34:20;35.20;;;15.82;;
56331;SDS011;42237;53.340;6.812;2022-10-30T02:36:46;24.10;;;12.90;;
56331;SDS011;42237;53.340;6.812;2022-10-30T02:39:12;26.60;;;13.75;;
56331;SDS011;42237;53.340;6.812;2022-10-30T02:41:38;28.55;;;14.85;;
56331;SDS011;42237;53.340;6.812;2022-10-30T02:44:04;23.70;;;13.93;;
56331;SDS011;42237;53.340;6.812;2022-10-30T02:46:31;27.83;;;14.27;;
56331;SDS011;42237;53.340;6.812;2022-10-30T02:48:57;22.20;;;13.15;;
56331;SDS011;42237;53.340;6.812;2022-10-30T02:51:22;32.30;;;14.70;;
56331;SDS011;42237;53.340;6.812;2022-10-30T02:53:48;29.10;;;13.43;;
56331;SDS011;42237;53.340;6.812;2022-10-30T02:56:14;26.25;;;13.65;;
56331;SDS011;42237;53.340;6.812;2022-10-30T02:58:41;27.27;;;13.88;;
56331;SDS011;42237;53.340;6.812;2022-10-30T03:01:14;31.88;;;13.82;;
56331;SDS011;42237;53.340;6.812;2022-10-30T03:03:42;22.70;;;13.75;;
56331;SDS011;42237;53.340;6.812;2022-10-30T03:06:08;27.70;;;14.07;;
56331;SDS011;42237;53.340;6.812;2022-10-30T03:08:36;23.35;;;13.60;;
56331;SDS011;42237;53.340;6.812;2022-10-30T03:11:06;28.98;;;14.30;;
56331;SDS011;42237;53.340;6.812;2022-10-30T03:13:33;30.20;;;14.27;;
56331;SDS011;42237;53.340;6.812;2022-10-30T03:18:30;24.55;;;12.90;;
56331;SDS011;42237;53.340;6.812;2022-10-30T03:20:59;27.30;;;13.75;;
56331;SDS011;42237;53.340;6.812;2022-10-30T03:23:26;27.83;;;13.30;;
56331;SDS011;42237;53.340;6.812;2022-10-30T03:25:53;26.98;;;13.55;;
56331;SDS011;42237;53.340;6.812;2022-10-30T03:28:20;27.77;;;13.00;;
56331;SDS011;42237;53.340;6.812;2022-10-30T03:30:47;27.02;;;13.85;;
56331;SDS011;42237;53.340;6.812;2022-10-30T03:33:14;27.13;;;13.52;;
56331;SDS011;42237;53.340;6.812;2022-10-30T03:35:41;22.58;;;12.80;;
56331;SDS011;42237;53.340;6.812;2022-10-30T03:38:11;28.05;;;13.73;;
56331;SDS011;42237;53.340;6.812;2022-10-30T03:40:37;29.50;;;13.15;;
56331;SDS011;42237;53.340;6.812;2022-10-30T03:43:03;23.15;;;12.93;;
56331;SDS011;42237;53.340;6.812;2022-10-30T03:45:30;27.90;;;13.27;;
56331;SDS011;42237;53.340;6.812;2022-10-30T03:47:58;21.13;;;13.45;;
56331;SDS011;42237;53.340;6.812;2022-10-30T03:50:27;25.65;;;13.55;;
56331;SDS011;42237;53.340;6.812;2022-10-30T03:52:53;19.73;;;12.73;;
56331;SDS011;42237;53.340;6.812;2022-10-30T03:55:20;29.80;;;13.20;;
56331;SDS011;42237;53.340;6.812;2022-10-30T03:57:46;26.02;;;13.95;;
56331;SDS011;42237;53.340;6.812;2022-10-30T04:00:11;22.23;;;12.73;;
56331;SDS011;42237;53.340;6.812;2022-10-30T04:02:38;24.77;;;13.25;;
56331;SDS011;42237;53.340;6.812;2022-10-30T04:05:03;30.15;;;13.73;;
56331;SDS011;42237;53.340;6.812;2022-10-30T04:07:29;26.85;;;13.27;;
56331;SDS011;42237;53.340;6.812;2022-10-30T04:09:55;28.70;;;14.23;;
56331;SDS011;42237;53.340;6.812;2022-10-30T04:12:20;28.08;;;12.32;;
56331;SDS011;42237;53.340;6.812;2022-10-30T04:14:46;25.00;;;13.50;;
56331;SDS011;42237;53.340;6.812;2022-10-30T04:17:12;28.63;;;13.98;;
56331;SDS011;42237;53.340;6.812;2022-10-30T04:19:37;24.60;;;12.93;;
56331;SDS011;42237;53.340;6.812;2022-10-30T04:22:03;23.75;;;12.40;;
56331;SDS011;42237;53.340;6.812;2022-10-30T04:24:29;26.85;;;13.32;;
56331;SDS011;42237;53.340;6.812;2022-10-30T04:26:55;22.48;;;13.45;;
56331;SDS011;42237;53.340;6.812;2022-10-30T04:29:21;30.92;;;13.15;;
56331;SDS011;42237;53.340;6.812;2022-10-30T04:31:46;27.58;;;13.88;;
56331;SDS011;42237;53.340;6.812;2022-10-30T04:34:12;23.80;;;12.93;;
56331;SDS011;42237;53.340;6.812;2022-10-30T04:36:38;29.30;;;12.65;;
56331;SDS011;42237;53.340;6.812;2022-10-30T04:39:03;24.20;;;13.57;;
56331;SDS011;42237;53.340;6.812;2022-10-30T04:41:29;25.75;;;12.95;;
56331;SDS011;42237;53.340;6.812;2022-10-30T04:43:55;31.85;;;13.30;;
56331;SDS011;42237;53.340;6.812;2022-10-30T04:46:21;25.80;;;13.43;;
56331;SDS011;42237;53.340;6.812;2022-10-30T04:48:46;25.98;;;13.50;;
56331;SDS011;42237;53.340;6.812;2022-10-30T04:51:12;25.33;;;13.90;;
56331;SDS011;42237;53.340;6.812;2022-10-30T04:53:38;34.38;;;13.55;;
56331;SDS011;42237;53.340;6.812;2022-10-30T04:56:04;27.05;;;14.00;;
56331;SDS011;42237;53.340;6.812;2022-10-30T04:58:30;27.92;;;13.75;;
56331;SDS011;42237;53.340;6.812;2022-10-30T05:00:59;27.05;;;12.77;;
56331;SDS011;42237;53.340;6.812;2022-10-30T05:03:26;25.30;;;13.73;;
56331;SDS011;42237;53.340;6.812;2022-10-30T05:05:58;25.95;;;13.52;;
56331;SDS011;42237;53.340;6.812;2022-10-30T05:08:26;21.95;;;12.80;;
56331;SDS011;42237;53.340;6.812;2022-10-30T05:10:53;27.05;;;13.25;;
56331;SDS011;42237;53.340;6.812;2022-10-30T05:13:18;33.42;;;13.85;;
56331;SDS011;42237;53.340;6.812;2022-10-30T05:15:44;21.92;;;13.32;;
56331;SDS011;42237;53.340;6.812;2022-10-30T05:18:10;23.55;;;12.93;;
56331;SDS011;42237;53.340;6.812;2022-10-30T05:20:36;27.33;;;13.40;;
56331;SDS011;42237;53.340;6.812;2022-10-30T05:23:01;27.58;;;13.63;;
56331;SDS011;42237;53.340;6.812;2022-10-30T05:25:27;27.92;;;14.15;;
56331;SDS011;42237;53.340;6.812;2022-10-30T05:28:00;24.08;;;13.73;;
56331;SDS011;42237;53.340;6.812;2022-10-30T05:30:28;24.67;;;13.27;;
56331;SDS011;42237;53.340;6.812;2022-10-30T05:32:58;26.17;;;13.05;;
56331;SDS011;42237;53.340;6.812;2022-10-30T05:35:24;29.80;;;14.23;;
56331;SDS011;42237;53.340;6.812;2022-10-30T05:37:50;25.33;;;13.88;;
56331;SDS011;42237;53.340;6.812;2022-10-30T05:40:15;24.60;;;13.98;;
56331;SDS011;42237;53.340;6.812;2022-10-30T05:42:45;28.83;;;14.43;;
56331;SDS011;42237;53.340;6.812;2022-10-30T05:45:11;23.20;;;13.35;;
56331;SDS011;42237;53.340;6.812;2022-10-30T05:47:37;25.13;;;13.48;;
56331;SDS011;42237;53.340;6.812;2022-10-30T05:50:03;33.40;;;13.88;;
56331;SDS011;42237;53.340;6.812;2022-10-30T05:52:29;27.38;;;15.00;;
56331;SDS011;42237;53.340;6.812;2022-10-30T05:54:55;23.58;;;13.75;;
56331;SDS011;42237;53.340;6.812;2022-10-30T05:57:21;25.60;;;14.27;;
56331;SDS011;42237;53.340;6.812;2022-10-30T05:59:46;26.63;;;13.10;;
56331;SDS011;42237;53.340;6.812;2022-10-30T06:02:12;29.10;;;13.55;;
56331;SDS011;42237;53.340;6.812;2022-10-30T06:04:38;27.83;;;14.10;;
56331;SDS011;42237;53.340;6.812;2022-10-30T06:07:04;25.55;;;13.48;;
56331;SDS011;42237;53.340;6.812;2022-10-30T06:09:30;29.60;;;14.02;;
56331;SDS011;42237;53.340;6.812;2022-10-30T06:11:55;30.75;;;14.23;;
56331;SDS011;42237;53.340;6.812;2022-10-30T06:14:22;24.90;;;14.65;;
56331;SDS011;42237;53.340;6.812;2022-10-30T06:16:48;27.77;;;14.18;;
56331;SDS011;42237;53.340;6.812;2022-10-30T06:19:14;28.55;;;14.35;;
56331;SDS011;42237;53.340;6.812;2022-10-30T06:21:39;29.20;;;15.07;;
56331;SDS011;42237;53.340;6.812;2022-10-30T06:24:05;28.65;;;13.45;;
56331;SDS011;42237;53.340;6.812;2022-10-30T06:26:31;23.33;;;14.32;;
56331;SDS011;42237;53.340;6.812;2022-10-30T06:28:57;31.02;;;14.00;;
56331;SDS011;42237;53.340;6.812;2022-10-30T06:31:22;25.20;;;13.70;;
56331;SDS011;42237;53.340;6.812;2022-10-30T06:33:48;25.27;;;14.10;;
56331;SDS011;42237;53.340;6.812;2022-10-30T06:36:17;29.27;;;14.98;;
56331;SDS011;42237;53.340;6.812;2022-10-30T06:38:43;25.58;;;14.48;;
56331;SDS011;42237;53.340;6.812;2022-10-30T06:41:08;26.40;;;14.48;;
56331;SDS011;42237;53.340;6.812;2022-10-30T06:43:34;33.33;;;15.48;;
56331;SDS011;42237;53.340;6.812;2022-10-30T06:46:00;32.42;;;14.65;;
56331;SDS011;42237;53.340;6.812;2022-10-30T06:48:25;30.35;;;14.48;;
56331;SDS011;42237;53.340;6.812;2022-10-30T06:50:54;29.77;;;15.30;;
56331;SDS011;42237;53.340;6.812;2022-10-30T06:53:21;28.27;;;14.23;;
56331;SDS011;42237;53.340;6.812;2022-10-30T06:55:57;27.70;;;15.13;;
56331;SDS011;42237;53.340;6.812;2022-10-30T06:58:25;27.40;;;14.55;;
56331;SDS011;42237;53.340;6.812;2022-10-30T07:00:51;25.02;;;13.55;;
56331;SDS011;42237;53.340;6.812;2022-10-30T07:03:17;25.30;;;14.18;;
56331;SDS011;42237;53.340;6.812;2022-10-30T07:05:43;28.90;;;14.43;;
56331;SDS011;42237;53.340;6.812;2022-10-30T07:08:09;32.78;;;15.35;;
56331;SDS011;42237;53.340;6.812;2022-10-30T07:10:34;31.20;;;15.45;;
56331;SDS011;42237;53.340;6.812;2022-10-30T07:13:00;26.08;;;14.43;;
56331;SDS011;42237;53.340;6.812;2022-10-30T07:15:26;28.73;;;14.65;;
56331;SDS011;42237;53.340;6.812;2022-10-30T07:17:52;30.58;;;16.13;;
56331;SDS011;42237;53.340;6.812;2022-10-30T07:20:22;30.63;;;14.75;;
56331;SDS011;42237;53.340;6.812;2022-10-30T07:22:49;28.00;;;14.95;;
56331;SDS011;42237;53.340;6.812;2022-10-30T07:25:15;27.52;;;14.80;;
56331;SDS011;42237;53.340;6.812;2022-10-30T07:27:41;42.55;;;17.13;;
56331;SDS011;42237;53.340;6.812;2022-10-30T07:30:08;27.25;;;15.70;;
56331;SDS011;42237;53.340;6.812;2022-10-30T07:32:35;30.17;;;16.50;;
56331;SDS011;42237;53.340;6.812;2022-10-30T07:35:01;35.10;;;16.05;;
56331;SDS011;42237;53.340;6.812;2022-10-30T07:37:28;33.35;;;15.52;;
56331;SDS011;42237;53.340;6.812;2022-10-30T07:39:54;28.40;;;15.95;;
56331;SDS011;42237;53.340;6.812;2022-10-30T07:42:19;30.33;;;15.75;;
56331;SDS011;42237;53.340;6.812;2022-10-30T07:44:45;26.85;;;15.38;;
56331;SDS011;42237;53.340;6.812;2022-10-30T07:47:10;27.77;;;15.52;;
56331;SDS011;42237;53.340;6.812;2022-10-30T07:49:36;33.72;;;15.57;;
56331;SDS011;42237;53.340;6.812;2022-10-30T07:52:02;26.88;;;14.45;;
56331;SDS011;42237;53.340;6.812;2022-10-30T07:54:28;27.02;;;15.50;;
56331;SDS011;42237;53.340;6.812;2022-10-30T07:56:53;31.70;;;15.82;;
56331;SDS011;42237;53.340;6.812;2022-10-30T07:59:19;27.88;;;15.18;;
56331;SDS011;42237;53.340;6.812;2022-10-30T08:01:45;29.33;;;15.13;;
56331;SDS011;42237;53.340;6.812;2022-10-30T08:04:10;25.83;;;15.02;;
56331;SDS011;42237;53.340;6.812;2022-10-30T08:06:38;32.08;;;15.40;;
56331;SDS011;42237;53.340;6.812;2022-10-30T08:09:04;26.25;;;15.88;;
56331;SDS011;42237;53.340;6.812;2022-10-30T08:11:30;26.73;;;14.48;;
56331;SDS011;42237;53.340;6.812;2022-10-30T08:13:55;29.92;;;16.20;;
56331;SDS011;42237;53.340;6.812;2022-10-30T08:16:21;31.85;;;15.68;;
56331;SDS011;42237;53.340;6.812;2022-10-30T08:18:47;29.02;;;14.18;;
56331;SDS011;42237;53.340;6.812;2022-10-30T08:21:12;28.70;;;16.75;;
56331;SDS011;42237;53.340;6.812;2022-10-30T08:23:38;29.67;;;16.25;;
56331;SDS011;42237;53.340;6.812;2022-10-30T08:26:04;27.48;;;16.38;;
56331;SDS011;42237;53.340;6.812;2022-10-30T08:28:30;30.92;;;17.08;;
56331;SDS011;42237;53.340;6.812;2022-10-30T08:30:57;33.38;;;15.60;;
56331;SDS011;42237;53.340;6.812;2022-10-30T08:33:23;34.63;;;17.58;;
56331;SDS011;42237;53.340;6.812;2022-10-30T08:35:49;42.80;;;17.55;;
56331;SDS011;42237;53.340;6.812;2022-10-30T08:38:17;32.50;;;16.35;;
56331;SDS011;42237;53.340;6.812;2022-10-30T08:40:43;29.35;;;15.93;;
56331;SDS011;42237;53.340;6.812;2022-10-30T08:43:09;29.17;;;16.23;;
56331;SDS011;42237;53.340;6.812;2022-10-30T08:45:35;28.85;;;16.88;;
56331;SDS011;42237;53.340;6.812;2022-10-30T08:48:01;30.52;;;15.18;;
56331;SDS011;42237;53.340;6.812;2022-10-30T08:50:28;26.42;;;16.42;;
56331;SDS011;42237;53.340;6.812;2022-10-30T08:52:55;42.13;;;17.83;;
56331;SDS011;42237;53.340;6.812;2022-10-30T08:55:25;26.92;;;15.38;;
56331;SDS011;42237;53.340;6.812;2022-10-30T08:57:50;26.60;;;16.95;;
56331;SDS011;42237;53.340;6.812;2022-10-30T09:00:16;34.28;;;16.75;;
56331;SDS011;42237;53.340;6.812;2022-10-30T09:02:42;33.10;;;16.80;;
56331;SDS011;42237;53.340;6.812;2022-10-30T09:05:09;29.17;;;15.05;;
56331;SDS011;42237;53.340;6.812;2022-10-30T09:07:35;30.20;;;16.00;;
56331;SDS011;42237;53.340;6.812;2022-10-30T09:10:00;26.85;;;15.85;;
56331;SDS011;42237;53.340;6.812;2022-10-30T09:12:27;31.80;;;16.90;;
56331;SDS011;42237;53.340;6.812;2022-10-30T09:14:52;30.30;;;15.85;;
56331;SDS011;42237;53.340;6.812;2022-10-30T09:17:18;34.30;;;15.13;;
56331;SDS011;42237;53.340;6.812;2022-10-30T09:19:44;28.67;;;16.30;;
56331;SDS011;42237;53.340;6.812;2022-10-30T09:22:09;31.27;;;16.08;;
56331;SDS011;42237;53.340;6.812;2022-10-30T09:24:35;34.53;;;16.42;;
56331;SDS011;42237;53.340;6.812;2022-10-30T09:27:01;32.83;;;16.52;;
56331;SDS011;42237;53.340;6.812;2022-10-30T09:29:27;28.15;;;16.08;;
56331;SDS011;42237;53.340;6.812;2022-10-30T09:31:55;25.33;;;15.23;;
56331;SDS011;42237;53.340;6.812;2022-10-30T09:34:21;28.23;;;16.10;;
56331;SDS011;42237;53.340;6.812;2022-10-30T09:36:46;31.70;;;15.45;;
56331;SDS011;42237;53.340;6.812;2022-10-30T09:39:13;39.20;;;15.75;;
56331;SDS011;42237;53.340;6.812;2022-10-30T09:46:50;36.05;;;15.52;;
56331;SDS011;42237;53.340;6.812;2022-10-30T09:49:27;30.42;;;13.93;;
56331;SDS011;42237;53.340;6.812;2022-10-30T09:52:20;27.77;;;15.00;;
56331;SDS011;42237;53.340;6.812;2022-10-30T10:05:55;24.17;;;13.98;;
56331;SDS011;42237;53.340;6.812;2022-10-30T10:08:27;28.40;;;14.45;;
56331;SDS011;42237;53.340;6.812;2022-10-30T10:10:59;25.05;;;14.45;;
56331;SDS011;42237;53.340;6.812;2022-10-30T10:13:35;31.88;;;14.65;;
56331;SDS011;42237;53.340;6.812;2022-10-30T10:16:33;24.58;;;13.18;;
56331;SDS011;42237;53.340;6.812;2022-10-30T10:19:21;28.60;;;14.93;;
56331;SDS011;42237;53.340;6.812;2022-10-30T10:21:57;28.85;;;14.35;;
56331;SDS011;42237;53.340;6.812;2022-10-30T10:24:28;30.77;;;13.32;;
56331;SDS011;42237;53.340;6.812;2022-10-30T10:27:13;26.45;;;13.70;;
56331;SDS011;42237;53.340;6.812;2022-10-30T10:41:27;23.00;;;11.90;;
56331;SDS011;42237;53.340;6.812;2022-10-30T10:44:28;28.90;;;14.35;;
56331;SDS011;42237;53.340;6.812;2022-10-30T10:49:55;24.30;;;12.10;;
56331;SDS011;42237;53.340;6.812;2022-10-30T10:52:42;23.55;;;12.05;;
56331;SDS011;42237;53.340;6.812;2022-10-30T10:55:20;21.75;;;11.60;;
56331;SDS011;42237;53.340;6.812;2022-10-30T10:57:48;21.50;;;12.02;;
56331;SDS011;42237;53.340;6.812;2022-10-30T11:00:17;25.38;;;12.05;;
56331;SDS011;42237;53.340;6.812;2022-10-30T11:05:42;19.15;;;11.52;;
56331;SDS011;42237;53.340;6.812;2022-10-30T11:08:22;25.23;;;12.40;;
56331;SDS011;42237;53.340;6.812;2022-10-30T11:11:03;26.63;;;11.50;;
56331;SDS011;42237;53.340;6.812;2022-10-30T11:13:33;21.60;;;10.25;;
56331;SDS011;42237;53.340;6.812;2022-10-30T11:18:40;26.75;;;12.45;;
56331;SDS011;42237;53.340;6.812;2022-10-30T11:21:18;23.83;;;12.40;;
56331;SDS011;42237;53.340;6.812;2022-10-30T11:23:47;22.15;;;12.23;;
56331;SDS011;42237;53.340;6.812;2022-10-30T11:31:25;24.80;;;12.13;;
56331;SDS011;42237;53.340;6.812;2022-10-30T11:33:58;23.38;;;13.75;;
56331;SDS011;42237;53.340;6.812;2022-10-30T11:36:37;26.48;;;14.40;;
56331;SDS011;42237;53.340;6.812;2022-10-30T11:39:48;21.90;;;12.55;;
56331;SDS011;42237;53.340;6.812;2022-10-30T11:41:54;26.83;;;13.13;;
56331;SDS011;42237;53.340;6.812;2022-10-30T11:44:38;21.05;;;12.23;;
56331;SDS011;42237;53.340;6.812;2022-10-30T11:47:08;20.33;;;11.20;;
56331;SDS011;42237;53.340;6.812;2022-10-30T11:52:08;26.92;;;11.85;;
56331;SDS011;42237;53.340;6.812;2022-10-30T11:54:37;21.70;;;11.70;;
56331;SDS011;42237;53.340;6.812;2022-10-30T11:57:29;23.10;;;11.68;;
56331;SDS011;42237;53.340;6.812;2022-10-30T11:59:57;26.10;;;12.02;;
56331;SDS011;42237;53.340;6.812;2022-10-30T12:02:27;21.88;;;10.98;;
56331;SDS011;42237;53.340;6.812;2022-10-30T12:05:01;28.55;;;12.57;;
56331;SDS011;42237;53.340;6.812;2022-10-30T12:07:33;19.05;;;10.98;;
56331;SDS011;42237;53.340;6.812;2022-10-30T12:09:58;21.80;;;11.40;;
56331;SDS011;42237;53.340;6.812;2022-10-30T12:12:26;18.67;;;11.25;;
56331;SDS011;42237;53.340;6.812;2022-10-30T12:14:58;20.73;;;10.70;;
56331;SDS011;42237;53.340;6.812;2022-10-30T12:17:54;24.70;;;11.73;;
56331;SDS011;42237;53.340;6.812;2022-10-30T12:20:25;25.58;;;11.57;;
56331;SDS011;42237;53.340;6.812;2022-10-30T12:22:51;22.75;;;10.18;;
56331;SDS011;42237;53.340;6.812;2022-10-30T12:25:51;22.75;;;12.20;;
56331;SDS011;42237;53.340;6.812;2022-10-30T12:28:16;21.95;;;9.93;;
56331;SDS011;42237;53.340;6.812;2022-10-30T12:33:16;22.30;;;10.20;;
56331;SDS011;42237;53.340;6.812;2022-10-30T12:36:10;22.57;;;12.10;;
56331;SDS011;42237;53.340;6.812;2022-10-30T12:41:33;28.48;;;11.80;;
56331;SDS011;42237;53.340;6.812;2022-10-30T12:49:46;23.83;;;10.25;;
56331;SDS011;42237;53.340;6.812;2022-10-30T12:52:20;18.42;;;9.73;;
56331;SDS011;42237;53.340;6.812;2022-10-30T12:57:45;23.30;;;10.10;;
56331;SDS011;42237;53.340;6.812;2022-10-30T13:00:41;27.50;;;11.05;;
56331;SDS011;42237;53.340;6.812;2022-10-30T13:06:22;21.73;;;10.13;;
56331;SDS011;42237;53.340;6.812;2022-10-30T13:09:01;23.15;;;10.60;;
56331;SDS011;42237;53.340;6.812;2022-10-30T13:14:21;19.65;;;10.85;;
56331;SDS011;42237;53.340;6.812;2022-10-30T13:16:55;21.52;;;11.10;;
56331;SDS011;42237;53.340;6.812;2022-10-30T13:19:22;21.63;;;10.80;;
56331;SDS011;42237;53.340;6.812;2022-10-30T13:21:51;24.13;;;10.68;;
56331;SDS011;42237;53.340;6.812;2022-10-30T13:24:54;23.08;;;11.10;;
56331;SDS011;42237;53.340;6.812;2022-10-30T13:30:26;22.88;;;10.75;;
56331;SDS011;42237;53.340;6.812;2022-10-30T13:35:58;27.92;;;11.30;;
56331;SDS011;42237;53.340;6.812;2022-10-30T13:38:33;25.25;;;10.35;;
56331;SDS011;42237;53.340;6.812;2022-10-30T13:41:21;22.73;;;10.48;;
56331;SDS011;42237;53.340;6.812;2022-10-30T13:47:03;23.52;;;11.32;;
56331;SDS011;42237;53.340;6.812;2022-10-30T13:49:47;27.42;;;12.85;;
56331;SDS011;42237;53.340;6.812;2022-10-30T13:52:23;29.42;;;12.25;;
56331;SDS011;42237;53.340;6.812;2022-10-30T13:54:55;29.02;;;13.57;;
56331;SDS011;42237;53.340;6.812;2022-10-30T13:57:31;27.73;;;14.63;;
56331;SDS011;42237;53.340;6.812;2022-10-30T14:00:14;27.85;;;14.30;;
56331;SDS011;42237;53.340;6.812;2022-10-30T14:08:09;32.63;;;14.32;;
56331;SDS011;42237;53.340;6.812;2022-10-30T14:10:46;31.52;;;13.90;;
56331;SDS011;42237;53.340;6.812;2022-10-30T14:15:44;34.47;;;16.13;;
56331;SDS011;42237;53.340;6.812;2022-10-30T14:20:49;35.03;;;14.55;;
56331;SDS011;42237;53.340;6.812;2022-10-30T14:28:27;30.42;;;13.77;;
56331;SDS011;42237;53.340;6.812;2022-10-30T14:31:16;28.48;;;13.38;;
56331;SDS011;42237;53.340;6.812;2022-10-30T14:33:44;31.48;;;14.73;;
56331;SDS011;42237;53.340;6.812;2022-10-30T14:53:19;30.80;;;14.18;;
56331;SDS011;42237;53.340;6.812;2022-10-30T14:58:39;43.28;;;15.52;;
56331;SDS011;42237;53.340;6.812;2022-10-30T15:06:59;33.33;;;13.65;;
56331;SDS011;42237;53.340;6.812;2022-10-30T15:10:31;32.25;;;15.32;;
56331;SDS011;42237;53.340;6.812;2022-10-30T15:15:26;34.45;;;16.35;;
56331;SDS011;42237;53.340;6.812;2022-10-30T15:17:52;31.08;;;15.10;;
56331;SDS011;42237;53.340;6.812;2022-10-30T15:20:21;28.95;;;14.95;;
56331;SDS011;42237;53.340;6.812;2022-10-30T15:22:49;38.20;;;15.70;;
56331;SDS011;42237;53.340;6.812;2022-10-30T15:25:19;33.75;;;14.82;;
56331;SDS011;42237;53.340;6.812;2022-10-30T15:27:48;43.45;;;16.50;;
56331;SDS011;42237;53.340;6.812;2022-10-30T15:30:18;32.40;;;15.45;;
56331;SDS011;42237;53.340;6.812;2022-10-30T15:32:45;32.20;;;14.85;;
56331;SDS011;42237;53.340;6.812;2022-10-30T15:35:15;40.97;;;15.30;;
56331;SDS011;42237;53.340;6.812;2022-10-30T15:38:05;27.30;;;14.45;;
56331;SDS011;42237;53.340;6.812;2022-10-30T15:40:34;28.88;;;13.63;;
56331;SDS011;42237;53.340;6.812;2022-10-30T15:43:01;30.00;;;14.80;;
56331;SDS011;42237;53.340;6.812;2022-10-30T15:45:36;31.95;;;15.80;;
56331;SDS011;42237;53.340;6.812;2022-10-30T15:50:43;43.92;;;16.85;;
56331;SDS011;42237;53.340;6.812;2022-10-30T15:53:17;33.78;;;15.43;;
56331;SDS011;42237;53.340;6.812;2022-10-30T15:55:44;41.25;;;17.63;;
56331;SDS011;42237;53.340;6.812;2022-10-30T15:58:13;36.47;;;17.20;;
56331;SDS011;42237;53.340;6.812;2022-10-30T16:00:42;35.15;;;16.25;;
56331;SDS011;42237;53.340;6.812;2022-10-30T16:03:22;36.65;;;15.52;;
56331;SDS011;42237;53.340;6.812;2022-10-30T16:05:48;37.80;;;18.85;;
56331;SDS011;42237;53.340;6.812;2022-10-30T16:08:16;40.65;;;19.35;;
56331;SDS011;42237;53.340;6.812;2022-10-30T16:10:45;34.05;;;20.35;;
56331;SDS011;42237;53.340;6.812;2022-10-30T16:13:13;40.90;;;21.08;;
56331;SDS011;42237;53.340;6.812;2022-10-30T16:15:42;36.83;;;20.02;;
56331;SDS011;42237;53.340;6.812;2022-10-30T16:18:30;48.25;;;27.52;;
56331;SDS011;42237;53.340;6.812;2022-10-30T16:21:01;45.10;;;23.20;;
56331;SDS011;42237;53.340;6.812;2022-10-30T16:23:40;45.47;;;21.35;;
56331;SDS011;42237;53.340;6.812;2022-10-30T16:26:25;38.60;;;18.67;;
56331;SDS011;42237;53.340;6.812;2022-10-30T16:31:37;40.58;;;18.88;;
56331;SDS011;42237;53.340;6.812;2022-10-30T16:34:03;35.83;;;17.95;;
56331;SDS011;42237;53.340;6.812;2022-10-30T16:36:34;44.00;;;20.42;;
56331;SDS011;42237;53.340;6.812;2022-10-30T16:39:01;42.35;;;19.55;;
56331;SDS011;42237;53.340;6.812;2022-10-30T16:41:27;46.92;;;19.70;;
56331;SDS011;42237;53.340;6.812;2022-10-30T16:49:33;38.72;;;19.15;;
56331;SDS011;42237;53.340;6.812;2022-10-30T16:52:04;39.20;;;18.85;;
56331;SDS011;42237;53.340;6.812;2022-10-30T16:54:32;36.50;;;18.83;;
56331;SDS011;42237;53.340;6.812;2022-10-30T16:57:02;37.88;;;19.58;;
56331;SDS011;42237;53.340;6.812;2022-10-30T16:59:37;53.80;;;21.30;;
56331;SDS011;42237;53.340;6.812;2022-10-30T17:02:19;41.38;;;20.02;;
56331;SDS011;42237;53.340;6.812;2022-10-30T17:05:29;55.60;;;24.13;;
56331;SDS011;42237;53.340;6.812;2022-10-30T17:11:32;58.25;;;28.02;;
56331;SDS011;42237;53.340;6.812;2022-10-30T17:13:32;53.63;;;26.70;;
56331;SDS011;42237;53.340;6.812;2022-10-30T17:18:44;57.22;;;26.30;;
56331;SDS011;42237;53.340;6.812;2022-10-30T17:21:10;52.88;;;24.50;;
56331;SDS011;42237;53.340;6.812;2022-10-30T17:26:43;57.58;;;26.42;;
56331;SDS011;42237;53.340;6.812;2022-10-30T17:34:47;59.75;;;25.55;;